createdAt,value
2023-02-11T00:04:44.598Z,65.99
2023-02-11T00:09:45.813Z,66.29
2023-02-11T00:14:55.993Z,66.23
2023-02-11T00:19:57.360Z,66.78
2023-02-11T00:24:58.600Z,67.50
2023-02-11T00:30:02.256Z,67.42
2023-02-11T00:35:03.534Z,66.88
2023-02-11T00:40:06.741Z,67.06
2023-02-11T00:45:09.757Z,67.47
2023-02-11T00:50:11.143Z,68.19
2023-02-11T00:55:12.391Z,67.71
2023-02-11T01:00:13.612Z,67.25
2023-02-11T01:05:14.967Z,66.94
2023-02-11T01:10:16.238Z,67.10
2023-02-11T01:15:17.506Z,67.95
2023-02-11T01:20:18.844Z,68.43
2023-02-11T01:25:20.058Z,67.04
2023-02-11T01:30:21.261Z,67.93
2023-02-11T01:35:22.481Z,68.37
2023-02-11T01:40:23.718Z,68.31
2023-02-11T01:45:24.947Z,67.82
2023-02-11T01:50:26.183Z,67.58
2023-02-11T01:55:46.309Z,67.42
2023-02-11T02:00:49.092Z,68.37
2023-02-11T02:05:50.747Z,68.31
2023-02-11T02:10:54.710Z,68.37
2023-02-11T02:15:56.017Z,68.47
2023-02-11T02:20:57.293Z,68.52
2023-02-11T02:25:58.568Z,68.50
2023-02-11T02:30:59.886Z,67.91
2023-02-11T02:36:01.185Z,67.33
2023-02-11T02:41:02.405Z,67.71
2023-02-11T02:46:03.672Z,67.48
2023-02-11T02:51:04.937Z,67.45
2023-02-11T02:56:06.211Z,67.50
2023-02-11T03:01:09.556Z,67.58
2023-02-11T03:06:10.910Z,67.56
2023-02-11T03:11:12.214Z,67.25
2023-02-11T03:16:13.639Z,67.57
2023-02-11T03:21:14.949Z,68.21
2023-02-11T03:26:16.194Z,69.87
2023-02-11T03:31:17.498Z,70.30
2023-02-11T03:36:18.843Z,69.73
2023-02-11T03:41:20.053Z,70.30
2023-02-11T03:46:21.402Z,70.03
2023-02-11T03:51:22.776Z,69.90
2023-02-11T03:56:24.022Z,71.34
2023-02-11T04:01:25.240Z,70.09
2023-02-11T04:06:26.554Z,69.96
2023-02-11T04:11:27.853Z,70.54
2023-02-11T04:16:30.888Z,70.08
2023-02-11T04:21:32.189Z,69.62
2023-02-11T04:26:33.399Z,69.08
2023-02-11T04:31:34.623Z,69.46
2023-02-11T04:36:35.912Z,69.77
2023-02-11T04:41:37.271Z,70.87
2023-02-11T04:46:38.538Z,70.51
2023-02-11T04:51:39.772Z,70.44
2023-02-11T04:56:40.989Z,70.00
2023-02-11T05:01:42.263Z,70.14
2023-02-11T05:06:43.511Z,69.98
2023-02-11T05:11:44.782Z,69.82
2023-02-11T05:16:46.049Z,69.67
2023-02-11T05:22:01.441Z,69.18
2023-02-11T05:27:03.658Z,70.16
2023-02-11T05:32:04.984Z,71.43
2023-02-11T05:37:06.219Z,71.41
2023-02-11T05:42:07.424Z,69.90
2023-02-11T05:47:09.017Z,69.86
2023-02-11T05:52:10.206Z,69.92
2023-02-11T05:57:11.414Z,69.71
2023-02-11T06:02:12.715Z,70.00
2023-02-11T06:07:14.000Z,69.82
2023-02-11T06:12:15.198Z,69.49
2023-02-11T06:17:16.439Z,69.21
2023-02-11T06:22:17.703Z,69.52
2023-02-11T06:27:19.077Z,70.09
2023-02-11T06:32:39.283Z,70.72
2023-02-11T06:37:41.647Z,70.30
2023-02-11T06:42:42.966Z,70.58
2023-02-11T06:47:44.212Z,70.77
2023-02-11T06:52:45.413Z,71.54
2023-02-11T06:57:46.624Z,70.96
2023-02-11T07:02:47.920Z,71.04
2023-02-11T07:07:49.332Z,71.93
2023-02-11T07:12:50.586Z,71.55
2023-02-11T07:17:51.820Z,70.70
2023-02-11T07:22:53.138Z,71.91
2023-02-11T07:27:54.411Z,72.55
2023-02-11T07:32:55.675Z,71.89
2023-02-11T07:38:02.992Z,71.91
2023-02-11T07:43:04.228Z,72.64
2023-02-11T07:48:05.571Z,71.81
2023-02-11T07:53:06.950Z,70.86
2023-02-11T07:58:08.210Z,70.09
2023-02-11T08:03:09.466Z,69.91
2023-02-11T08:08:10.672Z,68.74
2023-02-11T08:13:15.010Z,69.17
2023-02-11T08:18:16.261Z,68.10
2023-02-11T08:23:17.518Z,67.16
2023-02-11T08:28:18.930Z,67.41
2023-02-11T08:33:20.187Z,66.99
2023-02-11T08:38:21.660Z,65.18
2023-02-11T08:43:23.575Z,65.63
2023-02-11T08:48:24.827Z,65.96
2023-02-11T08:53:26.231Z,63.65
2023-02-11T08:58:27.457Z,61.62
2023-02-11T09:03:29.696Z,63.76
2023-02-11T09:08:30.909Z,63.35
2023-02-11T09:13:32.200Z,64.25
2023-02-11T09:18:33.636Z,64.21
2023-02-11T09:23:35.065Z,62.93
2023-02-11T09:28:36.388Z,63.04
2023-02-11T09:33:37.737Z,70.34
2023-02-11T09:38:38.996Z,61.93
2023-02-11T09:43:40.213Z,61.25
2023-02-11T09:48:41.843Z,70.65
2023-02-11T09:53:43.049Z,62.73
2023-02-11T09:58:44.318Z,65.13
2023-02-11T10:03:45.630Z,65.02
2023-02-11T10:08:46.872Z,63.93
2023-02-11T10:13:48.140Z,63.67
2023-02-11T10:18:49.367Z,61.32
2023-02-11T10:23:51.647Z,60.04
2023-02-11T10:28:53.005Z,59.87
2023-02-11T10:33:54.722Z,61.20
2023-02-11T10:38:55.992Z,61.04
2023-02-11T10:43:57.265Z,60.82
2023-02-11T10:48:58.504Z,60.99
2023-02-11T10:53:59.743Z,61.35
2023-02-11T10:59:01.233Z,60.96
2023-02-11T11:04:02.740Z,60.49
2023-02-11T11:09:04.676Z,59.78
2023-02-11T11:14:06.028Z,59.19
2023-02-11T11:19:07.614Z,59.19
2023-02-11T11:24:09.655Z,59.38
2023-02-11T11:29:11.693Z,59.42
2023-02-11T11:34:12.937Z,58.89
2023-02-11T11:39:14.211Z,58.12
2023-02-11T11:44:15.524Z,57.51
2023-02-11T11:49:16.953Z,57.04
2023-02-11T11:54:20.604Z,56.59
2023-02-11T11:59:21.852Z,56.20
2023-02-11T12:04:23.047Z,56.79
2023-02-11T12:09:24.331Z,56.07
2023-02-11T12:14:25.878Z,54.66
2023-02-11T12:19:27.756Z,54.28
2023-02-11T12:24:29.672Z,53.90
2023-02-11T12:29:30.932Z,53.94
2023-02-11T12:34:32.297Z,52.81
2023-02-11T12:39:36.747Z,51.59
2023-02-11T12:44:38.224Z,50.24
2023-02-11T12:49:39.489Z,51.62
2023-02-11T12:54:40.797Z,53.51
2023-02-11T12:59:42.218Z,53.04
2023-02-11T13:04:43.641Z,53.02
2023-02-11T13:09:45.018Z,55.51
2023-02-11T13:14:46.300Z,55.43
2023-02-11T13:19:47.559Z,55.18
2023-02-11T13:24:49.361Z,57.65
2023-02-11T13:29:50.874Z,56.63
2023-02-11T13:34:52.106Z,55.90
2023-02-11T13:39:53.350Z,55.15
2023-02-11T13:44:54.605Z,54.94
2023-02-11T13:49:55.983Z,56.40
2023-02-11T13:54:57.291Z,56.21
2023-02-11T13:59:58.577Z,57.05
2023-02-11T14:05:18.616Z,56.84
2023-02-11T14:10:19.840Z,56.70
2023-02-11T14:15:21.130Z,56.08
2023-02-11T14:20:22.394Z,56.65
2023-02-11T14:25:23.734Z,56.47
2023-02-11T14:30:25.233Z,55.78
2023-02-11T14:35:26.435Z,56.61
2023-02-11T14:40:27.693Z,57.13
2023-02-11T14:45:29.028Z,56.72
2023-02-11T14:50:30.283Z,56.32
2023-02-11T14:55:31.584Z,56.33
2023-02-11T15:00:32.867Z,56.17
2023-02-11T15:05:34.139Z,56.58
2023-02-11T15:10:35.417Z,56.75
2023-02-11T15:15:37.756Z,57.55
2023-02-11T15:20:39.072Z,58.23
2023-02-11T15:25:40.325Z,58.22
2023-02-11T15:30:41.622Z,60.47
2023-02-11T15:35:42.901Z,58.44
2023-02-11T15:40:44.551Z,58.87
2023-02-11T15:45:46.042Z,59.25
2023-02-11T15:50:47.277Z,59.27
2023-02-11T15:55:49.059Z,59.39
2023-02-11T16:00:50.748Z,60.70
2023-02-11T16:05:52.271Z,60.30
2023-02-11T16:10:53.747Z,61.69
2023-02-11T16:15:55.145Z,62.84
2023-02-11T16:20:56.572Z,61.00
2023-02-11T16:25:58.296Z,60.22
2023-02-11T16:31:02.402Z,59.14
2023-02-11T16:36:03.824Z,59.15
2023-02-11T16:41:05.073Z,60.21
2023-02-11T16:46:06.366Z,60.39
2023-02-11T16:51:09.232Z,61.56
2023-02-11T16:56:10.511Z,61.58
2023-02-11T17:01:13.972Z,64.11
2023-02-11T17:06:15.566Z,64.52
2023-02-11T17:11:17.904Z,67.08
2023-02-11T17:16:19.376Z,66.59
2023-02-11T17:21:20.707Z,66.24
2023-02-11T17:26:21.987Z,66.71
2023-02-11T17:31:23.377Z,65.53
2023-02-11T17:36:24.627Z,66.60
2023-02-11T17:41:25.849Z,65.64
2023-02-11T17:46:28.570Z,64.47
2023-02-11T17:51:29.840Z,63.47
2023-02-11T17:56:31.116Z,62.83
2023-02-11T18:01:32.532Z,63.58
2023-02-11T18:06:33.893Z,65.80
2023-02-11T18:11:35.162Z,61.61
2023-02-11T18:16:38.846Z,61.35
2023-02-11T18:21:40.186Z,61.36
2023-02-11T18:26:41.706Z,61.24
2023-02-11T18:31:49.288Z,62.04
2023-02-11T18:36:50.631Z,62.27
2023-02-11T18:41:54.559Z,66.77
2023-02-11T18:46:55.824Z,60.44
2023-02-11T18:51:58.792Z,60.74
2023-02-11T18:57:00.102Z,60.98
2023-02-11T19:02:01.378Z,61.13
2023-02-11T19:07:04.258Z,61.94
2023-02-11T19:12:07.046Z,62.16
2023-02-11T19:17:08.502Z,62.41
2023-02-11T19:22:10.784Z,62.63
2023-02-11T19:27:12.126Z,61.97
2023-02-11T19:32:13.439Z,62.13
2023-02-11T19:37:14.842Z,62.52
2023-02-11T19:42:16.080Z,63.78
2023-02-11T19:47:17.839Z,63.91
2023-02-11T19:52:19.071Z,63.63
2023-02-11T19:57:20.284Z,64.15
2023-02-11T20:02:21.605Z,63.86
2023-02-11T20:07:22.855Z,64.05
2023-02-11T20:12:24.061Z,64.37
2023-02-11T20:17:25.323Z,64.50
2023-02-11T20:22:26.605Z,65.23
2023-02-11T20:27:32.212Z,66.86
2023-02-11T20:32:37.964Z,67.14
2023-02-11T20:37:40.655Z,67.55
2023-02-11T20:42:43.504Z,67.44
2023-02-11T20:47:44.773Z,67.17
2023-02-11T20:52:46.096Z,68.25
2023-02-11T20:57:47.365Z,69.38
2023-02-11T21:02:49.460Z,70.16
2023-02-11T21:07:50.760Z,69.78
2023-02-11T21:12:52.000Z,69.81
2023-02-11T21:17:53.232Z,71.54
2023-02-11T21:22:54.480Z,71.66
2023-02-11T21:27:55.696Z,71.44
2023-02-11T21:32:56.947Z,71.83
2023-02-11T21:37:58.157Z,71.17
2023-02-11T21:42:59.392Z,70.81
2023-02-11T21:48:00.627Z,70.05
2023-02-11T21:53:01.893Z,70.32
2023-02-11T21:58:03.138Z,69.57
2023-02-11T22:03:04.436Z,69.75
2023-02-11T22:08:05.664Z,68.60
2023-02-11T22:13:06.894Z,68.67
2023-02-11T22:18:08.231Z,68.20
2023-02-11T22:23:09.452Z,67.97
2023-02-11T22:28:10.697Z,68.52
2023-02-11T22:33:11.987Z,68.26
2023-02-11T22:38:13.214Z,68.72
2023-02-11T22:43:14.435Z,69.53
2023-02-11T22:48:15.766Z,70.03
2023-02-11T22:53:17.025Z,71.41
2023-02-11T22:58:18.858Z,70.16
2023-02-11T23:03:20.213Z,70.32
2023-02-11T23:08:21.430Z,69.61
2023-02-11T23:13:22.673Z,69.66
2023-02-11T23:18:23.885Z,70.61
2023-02-11T23:23:25.162Z,70.11
2023-02-11T23:28:27.594Z,69.81
2023-02-11T23:33:28.830Z,69.88
2023-02-11T23:38:30.106Z,70.13
2023-02-11T23:43:31.432Z,70.29
2023-02-11T23:48:32.835Z,72.09
2023-02-11T23:53:34.137Z,73.61
2023-02-11T23:58:35.699Z,72.34
